Map

Track Data

SID SEASON NUMBER BASIN SUBBASIN NAME ISO_TIME NATURE LAT LON WMO_WIND WMO_PRES WMO_AGENCY TRACK_TYPE DIST2LAND LANDFALL IFLAG USA_AGENCY USA_ATCF_ID USA_LAT USA_LON USA_RECORD USA_STATUS USA_WIND USA_PRES USA_SSHS USA_R34_NE USA_R34_SE USA_R34_SW USA_R34_NW USA_R50_NE USA_R50_SE USA_R50_SW USA_R50_NW USA_R64_NE USA_R64_SE USA_R64_SW USA_R64_NW USA_POCI USA_ROCI USA_RMW USA_EYE TOKYO_LAT TOKYO_LON TOKYO_GRADE TOKYO_WIND TOKYO_PRES TOKYO_R50_DIR TOKYO_R50_LONG TOKYO_R50_SHORT TOKYO_R30_DIR TOKYO_R30_LONG TOKYO_R30_SHORT TOKYO_LAND CMA_LAT CMA_LON CMA_CAT CMA_WIND CMA_PRES HKO_LAT HKO_LON HKO_CAT HKO_WIND HKO_PRES NEWDELHI_LAT NEWDELHI_LON NEWDELHI_GRADE NEWDELHI_WIND NEWDELHI_PRES NEWDELHI_CI NEWDELHI_DP NEWDELHI_POCI REUNION_LAT REUNION_LON REUNION_TYPE REUNION_WIND REUNION_PRES REUNION_TNUM REUNION_CI REUNION_RMW REUNION_R34_NE REUNION_R34_SE REUNION_R34_SW REUNION_R34_NW REUNION_R50_NE REUNION_R50_SE REUNION_R50_SW REUNION_R50_NW REUNION_R64_NE REUNION_R64_SE REUNION_R64_SW REUNION_R64_NW BOM_LAT BOM_LON BOM_TYPE BOM_WIND BOM_PRES BOM_TNUM BOM_CI BOM_RMW BOM_R34_NE BOM_R34_SE BOM_R34_SW BOM_R34_NW BOM_R50_NE BOM_R50_SE BOM_R50_SW BOM_R50_NW BOM_R64_NE BOM_R64_SE BOM_R64_SW BOM_R64_NW BOM_ROCI BOM_POCI BOM_EYE BOM_POS_METHOD BOM_PRES_METHOD NADI_LAT NADI_LON NADI_CAT NADI_WIND NADI_PRES WELLINGTON_LAT WELLINGTON_LON WELLINGTON_WIND WELLINGTON_PRES DS824_LAT DS824_LON DS824_STAGE DS824_WIND DS824_PRES TD9636_LAT TD9636_LON TD9636_STAGE TD9636_WIND TD9636_PRES TD9635_LAT TD9635_LON TD9635_WIND TD9635_PRES TD9635_ROCI NEUMANN_LAT NEUMANN_LON NEUMANN_CLASS NEUMANN_WIND NEUMANN_PRES MLC_LAT MLC_LON MLC_CLASS MLC_WIND MLC_PRES USA_GUST BOM_GUST BOM_GUST_PER REUNION_GUST REUNION_GUST_PER USA_SEAHGT USA_SEARAD_NE USA_SEARAD_SE USA_SEARAD_SW USA_SEARAD_NW STORM_SPEED STORM_DIR
1878236N25280 1878 14 NA NA NOT_NAMED 1878-08-23 12:00:00 TS 25.1000 -79.8000 main 60 60 _____________O -1 25.1000 -79.8000 TD 30 2 61
1878236N25280 1878 14 NA NA NOT_NAMED 1878-08-23 15:00:00 TS 25.1500 -79.7000 main 68 68 _____________P -1 25.1500 -79.7000 TD 30 2 61
1878236N25280 1878 14 NA NA NOT_NAMED 1878-08-23 18:00:00 TS 25.2000 -79.6000 main 77 77 _____________O -1 25.2000 -79.6000 TD 30 2 61
1878236N25280 1878 14 NA NA NOT_NAMED 1878-08-23 21:00:00 TS 25.2500 -79.5000 main 87 82 _____________P -1 25.2500 -79.5000 TD 30 2 61
1878236N25280 1878 14 NA NA NOT_NAMED 1878-08-24 00:00:00 TS 25.3000 -79.4000 main 89 89 _____________O -1 25.3000 -79.4000 TD 30 2 61
1878236N25280 1878 14 NA NA NOT_NAMED 1878-08-24 03:00:00 TS 25.3500 -79.3000 main 97 91 _____________P -1 25.3500 -79.3000 TD 30 2 61
1878236N25280 1878 14 NA NA NOT_NAMED 1878-08-24 06:00:00 TS 25.4000 -79.2000 main 100 100 _____________O -1 25.4000 -79.2000 TD 30 2 61
1878236N25280 1878 14 NA NA NOT_NAMED 1878-08-24 09:00:00 TS 25.4500 -79.1000 main 105 100 _____________P -1 25.4500 -79.1000 TD 32 2 61
1878236N25280 1878 14 NA NA NOT_NAMED 1878-08-24 12:00:00 TS 25.5000 -79.0000 main 100 91 _____________O -1 25.5000 -79.0000 TS 35 2 61
1878236N25280 1878 14 NA NA NOT_NAMED 1878-08-24 15:00:00 TS 25.5500 -78.9000 main 97 89 _____________P -1 25.5500 -78.9000 TS 37 2 61
1878236N25280 1878 14 NA NA NOT_NAMED 1878-08-24 18:00:00 TS 25.6000 -78.8000 main 89 82 _____________O -1 25.6000 -78.8000 TS 40 2 61
1878236N25280 1878 14 NA NA NOT_NAMED 1878-08-24 21:00:00 TS 25.6500 -78.7000 main 90 82 _____________P -1 25.6500 -78.7000 TS 42 2 61
1878236N25280 1878 14 NA NA NOT_NAMED 1878-08-25 00:00:00 TS 25.7000 -78.6000 main 83 78 _____________O -1 25.7000 -78.6000 TS 45 2 61
1878236N25280 1878 14 NA NA NOT_NAMED 1878-08-25 03:00:00 TS 25.7500 -78.5000 main 78 78 _____________P -1 25.7500 -78.5000 TS 47 2 61
1878236N25280 1878 14 NA NA NOT_NAMED 1878-08-25 06:00:00 TS 25.8000 -78.4000 main 83 83 _____________O -1 25.8000 -78.4000 TS 50 1 59
1878236N25280 1878 14 NA NA NOT_NAMED 1878-08-25 09:00:00 TS 25.8272 -78.3597 main 83 80 _____________P -1 25.8272 -78.3597 TS 55 2 61
1878236N25280 1878 14 NA NA NOT_NAMED 1878-08-25 12:00:00 TS 25.9000 -78.2000 main 89 89 _____________O -1 25.9000 -78.2000 TS 60 6 65
1878236N25280 1878 14 NA NA NOT_NAMED 1878-08-25 15:00:00 TS 26.0702 -77.7676 main 113 113 _____________P -1 26.0702 -77.7676 TS 60 10 66
1878236N25280 1878 14 NA NA NOT_NAMED 1878-08-25 18:00:00 TS 26.3000 -77.2000 main 156 156 _____________O -1 26.3000 -77.2000 TS 60 11 65
1878236N25280 1878 14 NA NA NOT_NAMED 1878-08-25 21:00:00 TS 26.5424 -76.6574 main 203 203 _____________P -1 26.5424 -76.6574 TS 65 11 63
1878236N25280 1878 14 NA NA NOT_NAMED 1878-08-26 00:00:00 TS 26.8000 -76.1000 main 268 268 _____________O -1 26.8000 -76.1000 HU 70 11 63
1878236N25280 1878 14 NA NA NOT_NAMED 1878-08-26 03:00:00 TS 27.0574 -75.5424 main 334 334 _____________P -1 27.0574 -75.5424 HU 70 11 63
1878236N25280 1878 14 NA NA NOT_NAMED 1878-08-26 06:00:00 TS 27.3000 -75.0000 main 387 387 _____________O -1 27.3000 -75.0000 HU 70 10 65
1878236N25280 1878 14 NA NA NOT_NAMED 1878-08-26 09:00:00 TS 27.4922 -74.4994 main 439 439 _____________P -1 27.4922 -74.4994 HU 72 10 66
1878236N25280 1878 14 NA NA NOT_NAMED 1878-08-26 12:00:00 TS 27.7000 -74.0000 main 492 492 _____________O -1 27.7000 -74.0000 HU 75 10 62
1878236N25280 1878 14 NA NA NOT_NAMED 1878-08-26 15:00:00 TS 27.9848 -73.4649 main 552 552 _____________P -1 27.9848 -73.4649 HU 75 11 58
1878236N25280 1878 14 NA NA NOT_NAMED 1878-08-26 18:00:00 TS 28.3000 -72.9000 main 619 619 _____________O -1 28.3000 -72.9000 HU 75 12 59
1878236N25280 1878 14 NA NA NOT_NAMED 1878-08-26 21:00:00 TS 28.5999 -72.2998 main 686 686 _____________P -1 28.5999 -72.2998 HU 75 12 60
1878236N25280 1878 14 NA NA NOT_NAMED 1878-08-27 00:00:00 TS 28.9000 -71.7000 main 754 754 _____________O -1 28.9000 -71.7000 HU 75 12 59
1878236N25280 1878 14 NA NA NOT_NAMED 1878-08-27 03:00:00 TS 29.2072 -71.1422 main 796 787 _____________P -1 29.2072 -71.1422 HU 75 11 58
1878236N25280 1878 14 NA NA NOT_NAMED 1878-08-27 06:00:00 TS 29.5000 -70.6000 main 802 800 _____________O -1 29.5000 -70.6000 HU 75 11 60
1878236N25280 1878 14 NA NA NOT_NAMED 1878-08-27 09:00:00 TS 29.7417 -70.0865 main 819 811 _____________P -1 29.7417 -70.0865 HU 77 11 62
1878236N25280 1878 14 NA NA NOT_NAMED 1878-08-27 12:00:00 TS 30.0000 -69.5000 main 838 838 _____________O -1 30.0000 -69.5000 HU 80 972 13 63
1878236N25280 1878 14 NA NA NOT_NAMED 1878-08-27 15:00:00 TS 30.3276 -68.7374 main 875 875 _____________P -1 30.3276 -68.7374 HU 80 15 63
1878236N25280 1878 14 NA NA NOT_NAMED 1878-08-27 18:00:00 TS 30.7000 -67.9000 main 905 905 _____________O -1 30.7000 -67.9000 HU 80 16 61
1878236N25280 1878 14 NA NA NOT_NAMED 1878-08-27 21:00:00 TS 31.0995 -67.0997 main 937 937 _____________P -1 31.0995 -67.0997 HU 82 16 60
1878236N25280 1878 14 NA NA NOT_NAMED 1878-08-28 00:00:00 TS 31.5000 -66.3000 main 975 975 _____________O -1 31.5000 -66.3000 HU 85 16 61
1878236N25280 1878 14 NA NA NOT_NAMED 1878-08-28 03:00:00 TS 31.8496 -65.4916 main 1023 1023 _____________P -1 31.8496 -65.4916 HU 85 15 63
1878236N25280 1878 14 NA NA NOT_NAMED 1878-08-28 06:00:00 TS 32.2000 -64.7000 main 1070 1070 _____________O -1 32.2000 -64.7000 HU 85 15 60
1878236N25280 1878 14 NA NA NOT_NAMED 1878-08-28 09:00:00 TS 32.5993 -63.9495 main 1121 1121 _____________P -1 32.5993 -63.9495 HU 87 15 58
1878236N25280 1878 14 NA NA NOT_NAMED 1878-08-28 12:00:00 TS 33.0000 -63.2000 main 1138 1133 _____________O -1 33.0000 -63.2000 HU 90 15 60
1878236N25280 1878 14 NA NA NOT_NAMED 1878-08-28 15:00:00 TS 33.3496 -62.4065 main 1148 1134 _____________P -1 33.3496 -62.4065 HU 90 15 62
1878236N25280 1878 14 NA NA NOT_NAMED 1878-08-28 18:00:00 TS 33.7000 -61.6000 main 1136 1115 _____________O -1 33.7000 -61.6000 HU 90 972 15 61
1878236N25280 1878 14 NA NA NOT_NAMED 1878-08-28 21:00:00 TS 34.0920 -60.7995 main 1115 1096 _____________P -1 34.0920 -60.7995 HU 87 972 15 59
1878236N25280 1878 14 NA NA NOT_NAMED 1878-08-29 00:00:00 TS 34.5000 -60.0000 main 1100 1086 _____________I -1 34.5000 -60.0000 HU 85 973 15 58
1878236N25280 1878 14 NA NA NOT_NAMED 1878-08-29 03:00:00 TS 34.9070 -59.1995 main 1090 1081 _____________P -1 34.9070 -59.1995 HU 82 974 15 59
1878236N25280 1878 14 NA NA NOT_NAMED 1878-08-29 06:00:00 TS 35.3000 -58.4000 main 1086 1081 _____________O -1 35.3000 -58.4000 HU 80 975 15 60
1878236N25280 1878 14 NA NA NOT_NAMED 1878-08-29 09:00:00 TS 35.6488 -57.6284 main 1097 1082 _____________P -1 35.6488 -57.6284 HU 80 15 62
1878236N25280 1878 14 NA NA NOT_NAMED 1878-08-29 12:00:00 TS 36.0000 -56.8000 main 1085 1067 _____________O -1 36.0000 -56.8000 HU 80 16 63
1878236N25280 1878 14 NA NA NOT_NAMED 1878-08-29 15:00:00 TS 36.3995 -55.8447 main 1074 1066 _____________P -1 36.3995 -55.8447 HU 80 18 64
1878236N25280 1878 14 NA NA NOT_NAMED 1878-08-29 18:00:00 TS 36.8000 -54.8000 main 1072 1056 _____________O -1 36.8000 -54.8000 HU 80 19 66
1878236N25280 1878 14 NA NA NOT_NAMED 1878-08-29 21:00:00 TS 37.1490 -53.7283 main 1056 1012 _____________P -1 37.1490 -53.7283 HU 80 19 68
1878236N25280 1878 14 NA NA NOT_NAMED 1878-08-30 00:00:00 TS 37.5000 -52.6000 main 1013 976 _____________O -1 37.5000 -52.6000 HU 80 20 68
1878236N25280 1878 14 NA NA NOT_NAMED 1878-08-30 03:00:00 TS 37.8988 -51.4294 main 978 952 _____________P -1 37.8988 -51.4294 HU 80 21 67
1878236N25280 1878 14 NA NA NOT_NAMED 1878-08-30 06:00:00 TS 38.3000 -50.2000 main 954 944 _____________O -1 38.3000 -50.2000 HU 80 21 69
1878236N25280 1878 14 NA NA NOT_NAMED 1878-08-30 09:00:00 TS 38.6491 -48.9131 main 955 947 _____________P -1 38.6491 -48.9131 HU 77 21 71
1878236N25280 1878 14 NA NA NOT_NAMED 1878-08-30 12:00:00 TS 39.0000 -47.6000 main 959 957 _____________O -1 39.0000 -47.6000 HU 75 22 70
1878236N25280 1878 14 NA NA NOT_NAMED 1878-08-30 15:00:00 TS 39.3981 -46.3141 main 975 975 _____________P -1 39.3981 -46.3141 HU 70 22 68
1878236N25280 1878 14 NA NA NOT_NAMED 1878-08-30 18:00:00 TS 39.8000 -45.0000 main 1004 1004 _____________O -1 39.8000 -45.0000 HU 65 22 70
1878236N25280 1878 14 NA NA NOT_NAMED 1878-08-30 21:00:00 TS 40.1477 -43.6423 main 1057 1049 _____________P -1 40.1477 -43.6423 HU 60 22 72
1878236N25280 1878 14 NA NA NOT_NAMED 1878-08-31 00:00:00 TS 40.5000 -42.2000 main 1111 1111 _____________O -1 40.5000 -42.2000 TS 55 24 72
1878236N25280 1878 14 NA NA NOT_NAMED 1878-08-31 03:00:00 TS 40.8921 -40.6143 main 1185 1185 _____________P -1 40.8921 -40.6143 TS 50 25 72
1878236N25280 1878 14 NA NA NOT_NAMED 1878-08-31 06:00:00 TS 41.3000 -39.0000 main 1268 1268 _____________O -1 41.3000 -39.0000 TS 45 25 71
1878236N25280 1878 14 NA NA NOT_NAMED 1878-08-31 09:00:00 TS 41.7051 -37.4731 main 1350 1350 _____________P -1 41.7051 -37.4731 TS 40 24 70
1878236N25280 1878 14 NA NA NOT_NAMED 1878-08-31 12:00:00 TS 42.1000 -36.0000 main 1432 _____________O -1 42.1000 -36.0000 TS 35 23 70

About IBTrACS Database

This database is a web-friendly format of International Best Track Archive for Climate Stewardship (IBTrACS), a global best track data archive curated by NOAA dating back to 1842.

Updated: 2021-12-06